Time;durP1;ratioP1;P1;durP2;ratioP2;P2;SDS_P1;SDS_P2;PMS_P1;PMS_P2;Temp;Humidity;BMP_temperature;BMP_pressure;BME280_temperature;BME280_humidity;BME280_pressure;Samples;Min_cycle;Max_cycle;Signal;HPM_P1;HPM_P2
2023/12/18 00:01:59;;;;;;;5.57;4.87;;;9.30;99.90;;;;;;4948645;28;20438;-30
2023/12/18 00:04:27;;;;;;;6.63;5.90;;;9.30;99.90;;;;;;4965193;28;20849;-31
2023/12/18 00:06:58;;;;;;;6.10;5.17;;;9.30;99.90;;;;;;4946585;28;20442;-30
2023/12/18 00:09:27;;;;;;;7.50;5.50;;;9.30;99.90;;;;;;4963292;28;20431;-29
2023/12/18 00:12:20;;;;;;;5.47;4.90;;;9.30;99.90;;;;;;4949606;28;20456;-29
2023/12/18 00:14:49;;;;;;;7.07;5.23;;;9.30;99.90;;;;;;4965181;28;20477;-30
2023/12/18 00:17:22;;;;;;;7.73;5.03;;;9.30;99.90;;;;;;4950579;28;20422;-30
2023/12/18 00:19:53;;;;;;;7.30;5.73;;;9.30;99.90;;;;;;4966836;28;20474;-30
2023/12/18 00:22:21;;;;;;;5.00;4.50;;;9.30;99.90;;;;;;4966030;28;20439;-30
2023/12/18 00:24:53;;;;;;;5.33;4.83;;;9.30;99.90;;;;;;4965128;28;20453;-30
2023/12/18 00:27:21;;;;;;;7.77;5.33;;;9.30;99.90;;;;;;4970499;28;20963;-30
2023/12/18 00:29:51;;;;;;;6.13;5.13;;;9.30;99.90;;;;;;4937126;28;20434;-30
2023/12/18 00:32:17;;;;;;;6.00;4.50;;;9.20;99.90;;;;;;4962126;28;20602;-30
2023/12/18 00:34:47;;;;;;;6.27;5.23;;;9.30;99.90;;;;;;4960321;28;20489;-25
2023/12/18 00:37:19;;;;;;;4.37;3.93;;;9.20;99.90;;;;;;4945367;28;20869;-27
2023/12/18 00:39:45;;;;;;;8.40;4.93;;;9.20;99.90;;;;;;4960863;28;20470;-27
2023/12/18 00:42:13;;;;;;;7.50;5.20;;;9.20;99.90;;;;;;4959194;28;20451;-25
2023/12/18 00:44:39;;;;;;;5.40;4.90;;;9.20;99.90;;;;;;4958377;28;20937;-29
2023/12/18 00:47:09;;;;;;;5.50;5.00;;;9.20;99.90;;;;;;4959448;28;20611;-27
2023/12/18 00:49:34;;;;;;;6.40;4.93;;;9.20;99.90;;;;;;4959530;28;20430;-28
2023/12/18 00:52:01;;;;;;;5.10;4.60;;;9.20;99.90;;;;;;4960159;28;20450;-27
2023/12/18 00:54:29;;;;;;;5.37;4.67;;;9.20;99.90;;;;;;4959653;28;20865;-26
2023/12/18 00:56:55;;;;;;;6.33;5.43;;;9.20;99.90;;;;;;4963158;28;20457;-26
2023/12/18 00:59:21;;;;;;;6.17;4.77;;;9.20;99.90;;;;;;4960772;28;20474;-26
2023/12/18 01:01:49;;;;;;;6.03;5.43;;;9.20;99.90;;;;;;4958639;28;20449;-26
2023/12/18 01:04:17;;;;;;;7.20;5.00;;;9.20;99.90;;;;;;4959699;28;20441;-25
2023/12/18 01:06:46;;;;;;;5.40;4.90;;;9.20;99.90;;;;;;4957039;28;20989;-26
2023/12/18 01:09:12;;;;;;;5.27;4.77;;;9.20;99.90;;;;;;4957839;28;20454;-28
2023/12/18 01:11:39;;;;;;;5.67;5.07;;;9.20;99.90;;;;;;4959147;28;20431;-26
2023/12/18 01:14:07;;;;;;;5.23;4.80;;;9.20;99.90;;;;;;4959568;28;20438;-27
2023/12/18 01:16:33;;;;;;;5.90;4.80;;;9.20;99.90;;;;;;4957418;28;20458;-25
2023/12/18 01:19:00;;;;;;;6.83;4.90;;;9.20;99.90;;;;;;4958536;28;21011;-27
2023/12/18 01:21:28;;;;;;;4.70;3.90;;;9.20;99.90;;;;;;4938030;28;20492;-26
2023/12/18 01:23:55;;;;;;;6.80;3.97;;;9.10;99.90;;;;;;4942118;28;20440;-28
2023/12/18 01:26:23;;;;;;;6.10;4.90;;;9.10;99.90;;;;;;4959267;28;20450;-26
2023/12/18 01:28:58;;;;;;;7.90;5.97;;;9.10;99.90;;;;;;4955150;28;20422;-26
2023/12/18 01:31:24;;;;;;;4.77;4.30;;;9.10;99.90;;;;;;4959393;28;20453;-25
2023/12/18 01:33:53;;;;;;;5.37;4.40;;;9.10;99.90;;;;;;4958790;28;20868;-26
2023/12/18 01:36:19;;;;;;;6.23;5.63;;;9.10;99.90;;;;;;4959756;28;20823;-28
2023/12/18 01:38:47;;;;;;;5.43;4.80;;;9.10;99.90;;;;;;4959442;28;20462;-24
2023/12/18 01:41:23;;;;;;;6.13;4.97;;;9.10;99.90;;;;;;4958628;28;20508;-27
2023/12/18 01:43:49;;;;;;;6.10;4.70;;;9.10;99.90;;;;;;4959216;28;20407;-27
2023/12/18 01:46:24;;;;;;;9.30;4.70;;;9.10;99.90;;;;;;4941669;28;20463;-27
2023/12/18 01:48:53;;;;;;;6.40;4.87;;;9.10;99.90;;;;;;4959255;28;20481;-26
2023/12/18 01:51:22;;;;;;;5.73;4.53;;;9.10;99.90;;;;;;4958877;28;21182;-26
2023/12/18 01:53:52;;;;;;;5.40;4.63;;;9.10;99.90;;;;;;4957536;28;20442;-27
2023/12/18 01:56:23;;;;;;;7.40;5.20;;;9.00;99.90;;;;;;4958763;28;20446;-25
2023/12/18 01:58:54;;;;;;;6.40;5.50;;;9.10;99.90;;;;;;4963753;28;21047;-26
2023/12/18 02:01:23;;;;;;;7.30;4.63;;;9.10;99.90;;;;;;4942042;28;20536;-27
2023/12/18 02:03:52;;;;;;;5.30;4.13;;;9.10;99.90;;;;;;4925984;28;20485;-27
2023/12/18 02:06:18;;;;;;;5.00;4.50;;;9.10;99.90;;;;;;4959039;28;20482;-25
2023/12/18 02:08:44;;;;;;;7.00;4.70;;;9.00;99.90;;;;;;4959276;28;20434;-27
2023/12/18 02:11:14;;;;;;;5.73;4.90;;;9.00;99.90;;;;;;4957485;28;20427;-25
2023/12/18 02:13:44;;;;;;;5.17;3.90;;;9.00;99.90;;;;;;4961415;28;20422;-26
2023/12/18 02:16:14;;;;;;;4.57;4.17;;;9.00;99.90;;;;;;4961324;28;20446;-27
2023/12/18 02:18:47;;;;;;;4.47;4.07;;;9.00;99.90;;;;;;4961049;28;21362;-26
2023/12/18 02:21:24;;;;;;;5.30;3.83;;;9.00;99.90;;;;;;4960879;28;20449;-26
2023/12/18 02:23:50;;;;;;;5.87;4.27;;;9.00;99.90;;;;;;4960219;28;20425;-26
2023/12/18 02:26:17;;;;;;;5.27;4.20;;;9.00;99.90;;;;;;4961459;28;20534;-26
2023/12/18 02:28:46;;;;;;;4.47;3.90;;;9.00;99.90;;;;;;4966346;28;20460;-26
2023/12/18 02:31:15;;;;;;;6.40;4.03;;;9.00;99.90;;;;;;4961879;28;20454;-26
2023/12/18 02:33:49;;;;;;;6.43;4.33;;;9.00;99.90;;;;;;4961610;28;20426;-28
2023/12/18 02:36:20;;;;;;;5.13;4.40;;;9.00;99.90;;;;;;4960639;28;20451;-26
2023/12/18 02:38:51;;;;;;;4.90;4.23;;;9.00;99.90;;;;;;4961422;28;20557;-26
2023/12/18 02:41:19;;;;;;;8.50;4.63;;;8.90;99.90;;;;;;4961618;28;20541;-27
2023/12/18 02:43:48;;;;;;;4.57;4.17;;;9.00;99.90;;;;;;4961452;28;20878;-26
2023/12/18 02:46:14;;;;;;;5.87;4.23;;;8.90;99.90;;;;;;4943582;28;20490;-27
2023/12/18 02:48:43;;;;;;;4.33;3.93;;;9.00;99.90;;;;;;4959644;28;20492;-25
2023/12/18 02:51:09;;;;;;;4.93;4.30;;;8.90;99.90;;;;;;4960439;28;20537;-26
2023/12/18 02:53:35;;;;;;;4.23;3.83;;;9.00;99.90;;;;;;4959891;28;20918;-26
2023/12/18 02:56:04;;;;;;;6.57;4.47;;;8.90;99.90;;;;;;4959657;28;20965;-26
2023/12/18 02:58:32;;;;;;;4.77;4.37;;;8.90;99.90;;;;;;4959366;28;20454;-25
2023/12/18 03:00:58;;;;;;;5.70;4.13;;;8.90;99.90;;;;;;4943783;28;20427;-26
2023/12/18 03:03:30;;;;;;;4.67;4.13;;;8.90;99.90;;;;;;4944657;28;20489;-26
2023/12/18 03:05:56;;;;;;;5.20;4.17;;;8.90;99.90;;;;;;4961401;28;20450;-24
2023/12/18 03:08:24;;;;;;;5.80;4.50;;;8.90;99.90;;;;;;4943664;28;20435;-25
2023/12/18 03:10:52;;;;;;;8.23;4.50;;;8.90;99.90;;;;;;4943193;28;20467;-26
2023/12/18 03:13:18;;;;;;;5.20;4.70;;;8.90;99.90;;;;;;4961214;28;20510;-25
2023/12/18 03:15:44;;;;;;;7.00;5.00;;;8.90;99.90;;;;;;4961568;28;20454;-26
2023/12/18 03:18:10;;;;;;;6.90;4.00;;;8.90;99.90;;;;;;4960709;28;20438;-27
2023/12/18 03:20:38;;;;;;;5.27;4.77;;;8.90;99.90;;;;;;4961062;28;20998;-27
2023/12/18 03:23:08;;;;;;;5.30;4.80;;;8.90;99.90;;;;;;4958415;28;20438;-25
2023/12/18 03:25:34;;;;;;;7.20;5.10;;;8.90;99.90;;;;;;4942758;28;20527;-25
2023/12/18 03:28:00;;;;;;;4.43;4.03;;;8.90;99.90;;;;;;4965124;28;20427;-25
2023/12/18 03:30:26;;;;;;;4.90;4.40;;;8.90;99.90;;;;;;4942937;28;20437;-25
2023/12/18 03:32:52;;;;;;;5.10;4.60;;;8.90;99.90;;;;;;4968312;23;20870;-75
2023/12/18 03:35:18;;;;;;;4.67;4.20;;;8.90;99.90;;;;;;4960085;28;20426;-74
2023/12/18 03:37:44;;;;;;;6.40;4.50;;;8.90;99.90;;;;;;4958571;28;20426;-75
2023/12/18 03:40:13;;;;;;;8.07;5.30;;;8.90;99.90;;;;;;4942142;28;21070;-75
2023/12/18 03:42:40;;;;;;;6.23;4.80;;;8.90;99.90;;;;;;4958156;28;20968;-75
2023/12/18 03:45:06;;;;;;;4.93;4.43;;;8.80;99.90;;;;;;4926706;28;20430;-75
2023/12/18 03:47:32;;;;;;;5.47;4.97;;;8.80;99.90;;;;;;4942844;28;20493;-75
2023/12/18 03:50:03;;;;;;;4.90;4.40;;;8.80;99.90;;;;;;4959029;28;20451;-75
2023/12/18 03:52:31;;;;;;;8.30;5.00;;;8.80;99.90;;;;;;4942470;28;21027;-75
2023/12/18 03:54:57;;;;;;;4.37;3.97;;;8.80;99.90;;;;;;4926411;28;20458;-75
2023/12/18 03:57:26;;;;;;;4.87;4.47;;;8.80;99.90;;;;;;4942001;28;20517;-74
2023/12/18 03:59:52;;;;;;;6.73;5.00;;;8.80;99.90;;;;;;4942689;28;20476;-74
2023/12/18 04:02:18;;;;;;;5.10;4.30;;;8.80;99.90;;;;;;4959126;28;20508;-75
2023/12/18 04:04:44;;;;;;;6.93;4.27;;;8.80;99.90;;;;;;4926483;28;20438;-75
2023/12/18 04:07:13;;;;;;;5.27;4.43;;;8.80;99.90;;;;;;4941447;28;20501;-75
2023/12/18 04:09:39;;;;;;;5.63;4.33;;;8.80;99.90;;;;;;4939000;28;21068;-75
2023/12/18 04:12:08;;;;;;;6.27;4.57;;;8.80;99.90;;;;;;4941765;28;20446;-74
2023/12/18 04:14:34;;;;;;;4.67;4.23;;;8.80;99.90;;;;;;4942000;28;21014;-75
2023/12/18 04:17:00;;;;;;;5.03;4.63;;;8.80;99.90;;;;;;4941811;28;20446;-75
2023/12/18 04:19:30;;;;;;;6.27;4.07;;;8.80;99.90;;;;;;4941650;28;20474;-74
2023/12/18 04:21:59;;;;;;;6.50;4.13;;;8.80;99.90;;;;;;4950275;28;20447;-74
2023/12/18 04:24:25;;;;;;;7.30;5.07;;;8.70;99.90;;;;;;4941576;28;20457;-75
2023/12/18 04:26:53;;;;;;;5.80;4.40;;;8.80;99.90;;;;;;4959252;28;20419;-75
2023/12/18 04:29:24;;;;;;;5.43;4.60;;;8.80;99.90;;;;;;4959506;28;20525;-74
2023/12/18 04:31:53;;;;;;;6.10;4.70;;;8.70;99.90;;;;;;4959190;28;20581;-75
2023/12/18 04:34:19;;;;;;;6.50;5.07;;;8.80;99.90;;;;;;4941394;28;21133;-75
2023/12/18 04:36:47;;;;;;;5.33;4.33;;;8.80;99.90;;;;;;4941880;28;20454;-74
2023/12/18 04:39:14;;;;;;;5.20;4.13;;;8.80;99.90;;;;;;4958073;28;20462;-75
2023/12/18 04:41:44;;;;;;;5.10;4.60;;;8.70;99.90;;;;;;4941818;28;20430;-75
2023/12/18 04:44:10;;;;;;;4.83;4.37;;;8.70;99.90;;;;;;4942054;28;20431;-75
2023/12/18 04:46:37;;;;;;;4.37;3.60;;;8.70;99.90;;;;;;4940917;28;20442;-74
2023/12/18 04:49:04;;;;;;;5.93;4.50;;;8.70;99.90;;;;;;4958036;28;20481;-75
2023/12/18 04:51:33;;;;;;;5.67;4.10;;;8.70;99.90;;;;;;4959128;28;20426;-74
2023/12/18 04:54:01;;;;;;;5.43;4.67;;;8.70;99.90;;;;;;4959651;28;20496;-75
2023/12/18 04:56:29;;;;;;;5.20;4.20;;;8.70;99.90;;;;;;4941381;28;20434;-75
2023/12/18 04:58:58;;;;;;;9.43;4.43;;;8.70;99.90;;;;;;4941464;28;20521;-75
2023/12/18 05:01:24;;;;;;;5.00;4.00;;;8.70;99.90;;;;;;4957882;28;20855;-75
2023/12/18 05:03:50;;;;;;;4.53;4.13;;;8.70;99.90;;;;;;4936597;28;20445;-75
2023/12/18 05:06:23;;;;;;;5.90;4.40;;;8.70;99.90;;;;;;4939762;28;20458;-74
2023/12/18 05:08:50;;;;;;;7.40;4.87;;;8.70;99.90;;;;;;4941657;28;20198;-74
2023/12/18 05:11:22;;;;;;;4.77;4.33;;;8.70;99.90;;;;;;4957765;28;21597;-75
2023/12/18 05:13:51;;;;;;;7.20;5.00;;;8.70;99.90;;;;;;4941617;28;20447;-74
2023/12/18 05:16:18;;;;;;;5.97;4.87;;;8.70;99.90;;;;;;4959325;28;20429;-75
2023/12/18 05:18:45;;;;;;;6.00;4.90;;;8.70;99.90;;;;;;4956754;28;20851;-75
2023/12/18 05:21:13;;;;;;;6.30;4.53;;;8.70;99.90;;;;;;4941915;28;21233;-74
2023/12/18 05:23:42;;;;;;;4.70;3.80;;;8.70;99.90;;;;;;4957221;28;20442;-75
2023/12/18 05:26:10;;;;;;;9.30;4.67;;;8.70;99.90;;;;;;4957599;28;20985;-75
2023/12/18 05:28:45;;;;;;;5.17;4.77;;;8.60;99.90;;;;;;4941206;28;20837;-75
2023/12/18 05:31:16;;;;;;;5.63;5.00;;;8.60;99.90;;;;;;4958680;28;20838;-74
2023/12/18 05:33:44;;;;;;;5.20;4.70;;;8.60;99.90;;;;;;4957887;28;20566;-74
2023/12/18 05:36:18;;;;;;;5.83;4.47;;;8.60;99.90;;;;;;4943918;28;21115;-75
2023/12/18 05:38:46;;;;;;;4.43;4.03;;;8.60;99.90;;;;;;4958393;28;20468;-74
2023/12/18 05:41:15;;;;;;;5.53;4.67;;;8.60;99.90;;;;;;4957321;28;20549;-75
2023/12/18 05:43:41;;;;;;;6.37;4.27;;;8.60;99.90;;;;;;4936304;28;20791;-74
2023/12/18 05:46:11;;;;;;;4.50;4.10;;;8.60;99.90;;;;;;4956395;28;20492;-74
2023/12/18 05:48:37;;;;;;;7.00;4.73;;;8.60;99.90;;;;;;4942573;28;20450;-75
2023/12/18 05:51:04;;;;;;;4.90;4.43;;;8.60;99.90;;;;;;4960814;28;20445;-75
2023/12/18 05:53:30;;;;;;;5.20;4.63;;;8.60;99.90;;;;;;4927066;28;20927;-76
2023/12/18 05:55:56;;;;;;;7.10;6.40;;;8.60;99.90;;;;;;4943522;28;20445;-75
2023/12/18 05:58:24;;;;;;;5.03;4.20;;;8.60;99.90;;;;;;4951518;28;20434;-75
2023/12/18 06:00:50;;;;;;;10.67;5.33;;;8.60;99.90;;;;;;4960749;28;20480;-75
2023/12/18 06:03:18;;;;;;;5.83;4.17;;;8.60;99.90;;;;;;4942431;28;20450;-75
2023/12/18 06:05:46;;;;;;;6.03;5.43;;;8.60;99.90;;;;;;4942451;28;20561;-74
2023/12/18 06:08:17;;;;;;;6.23;5.63;;;8.60;99.90;;;;;;4959589;28;20419;-75
2023/12/18 06:10:45;;;;;;;7.33;5.50;;;8.60;99.90;;;;;;4942684;28;20504;-76
2023/12/18 06:13:11;;;;;;;8.63;6.83;;;8.60;99.90;;;;;;4958742;28;20438;-75
2023/12/18 06:15:39;;;;;;;9.17;6.77;;;8.60;99.90;;;;;;4959075;28;20453;-75
2023/12/18 06:18:07;;;;;;;8.37;6.60;;;8.60;99.90;;;;;;4940339;28;20544;-74
2023/12/18 06:20:36;;;;;;;9.17;6.70;;;8.60;99.90;;;;;;4941107;28;20486;-74
2023/12/18 06:23:01;;;;;;;8.23;6.47;;;8.60;99.90;;;;;;4936686;28;20456;-74
2023/12/18 06:25:27;;;;;;;13.07;8.47;;;8.60;99.90;;;;;;4926152;28;20443;-75
2023/12/18 06:27:53;;;;;;;14.10;8.37;;;8.50;99.90;;;;;;4941161;28;20426;-74
2023/12/18 06:30:22;;;;;;;11.57;8.83;;;8.50;99.90;;;;;;4941626;28;20465;-76
2023/12/18 06:32:51;;;;;;;12.10;9.10;;;8.50;99.90;;;;;;4959183;28;20565;-74
2023/12/18 06:35:26;;;;;;;13.00;9.10;;;8.50;99.90;;;;;;4942375;28;20445;-75
2023/12/18 06:38:04;;;;;;;12.93;8.90;;;8.50;99.90;;;;;;4957663;28;20437;-74
2023/12/18 06:40:30;;;;;;;13.43;9.33;;;8.50;99.90;;;;;;4941403;28;21107;-74
2023/12/18 06:42:58;;;;;;;14.17;10.37;;;8.50;99.90;;;;;;4958900;28;20426;-75
2023/12/18 06:45:30;;;;;;;12.52;9.95;;;8.50;99.90;;;;;;4941967;28;20430;-75
2023/12/18 06:48:11;;;;;;;16.17;9.80;;;8.50;99.90;;;;;;4925977;28;20221;-74
2023/12/18 06:50:39;;;;;;;13.40;9.33;;;8.60;99.90;;;;;;4959215;28;20454;-74
2023/12/18 06:53:09;;;;;;;17.57;10.03;;;8.60;99.90;;;;;;4916573;28;20428;-74
2023/12/18 06:55:41;;;;;;;13.93;10.30;;;8.60;99.90;;;;;;4959613;28;21159;-77
2023/12/18 06:58:19;;;;;;;12.30;8.80;;;8.50;99.90;;;;;;4947340;28;20450;-75
2023/12/18 07:00:53;;;;;;;15.00;10.23;;;8.50;99.90;;;;;;4940425;28;20493;-75
2023/12/18 07:03:33;;;;;;;13.20;9.50;;;8.50;99.90;;;;;;4924699;28;21222;-75
2023/12/18 07:06:06;;;;;;;12.00;9.47;;;8.50;99.90;;;;;;4953849;28;20446;-74
2023/12/18 07:08:40;;;;;;;12.40;8.73;;;8.50;99.90;;;;;;4939314;28;20453;-75
2023/12/18 07:11:08;;;;;;;15.13;10.20;;;8.50;99.90;;;;;;4942203;28;20529;-75
2023/12/18 07:13:46;;;;;;;13.07;9.87;;;8.50;99.90;;;;;;4941475;28;20497;-75
2023/12/18 07:16:24;;;;;;;10.67;8.47;;;8.50;99.90;;;;;;4941507;28;21414;-75
2023/12/18 07:18:50;;;;;;;13.20;8.90;;;8.50;99.90;;;;;;4955913;28;20521;-75
2023/12/18 07:21:16;;;;;;;14.67;9.13;;;8.50;99.90;;;;;;4940466;28;21106;-74
2023/12/18 07:23:44;;;;;;;12.20;9.40;;;8.50;99.90;;;;;;4955776;28;20427;-75
2023/12/18 07:26:12;;;;;;;11.63;9.37;;;8.50;99.90;;;;;;4940946;28;21061;-74
2023/12/18 07:31:22;;;;;;;12.00;9.60;;;8.50;99.90;;;;;;4981519;28;20489;-71
2023/12/18 07:33:48;;;;;;;12.57;9.80;;;8.50;99.90;;;;;;4990656;28;20425;-71
2023/12/18 07:36:17;;;;;;;12.37;9.70;;;8.50;99.90;;;;;;4960232;28;20437;-71
2023/12/18 07:38:45;;;;;;;18.53;9.50;;;8.50;99.90;;;;;;4962686;28;20487;-71
2023/12/18 07:41:11;;;;;;;18.50;9.43;;;8.40;99.90;;;;;;4978368;28;20453;-71
2023/12/18 07:43:38;;;;;;;13.50;10.27;;;8.50;99.90;;;;;;4975031;28;20433;-72
2023/12/18 07:46:03;;;;;;;13.13;10.40;;;8.40;99.90;;;;;;4977779;28;21036;-73
2023/12/18 07:48:32;;;;;;;15.77;9.47;;;8.40;99.90;;;;;;4995486;28;21053;-71
2023/12/18 07:51:01;;;;;;;11.83;8.83;;;8.40;99.90;;;;;;4943868;28;20535;-73
2023/12/18 07:53:29;;;;;;;12.93;9.20;;;8.40;99.90;;;;;;4946618;28;20499;-72
2023/12/18 07:55:55;;;;;;;14.73;9.83;;;8.40;99.90;;;;;;4961858;28;20437;-72
2023/12/18 07:58:21;;;;;;;12.00;10.80;;;8.40;99.90;;;;;;4953951;28;20436;-73
2023/12/18 08:00:47;;;;;;;16.40;9.13;;;8.40;99.90;;;;;;4987509;28;21373;-72
2023/12/18 08:03:15;;;;;;;13.07;9.70;;;8.50;99.90;;;;;;4967752;28;20525;-73
2023/12/18 08:05:46;;;;;;;12.30;9.77;;;8.40;99.90;;;;;;4989320;28;20840;-73
2023/12/18 08:08:12;;;;;;;13.60;9.97;;;8.40;99.90;;;;;;4975458;28;20441;-75
2023/12/18 08:10:38;;;;;;;12.63;10.30;;;8.40;99.90;;;;;;4973576;28;20433;-74
2023/12/18 08:13:05;;;;;;;14.10;10.03;;;8.40;99.90;;;;;;4960374;28;20600;-75
2023/12/18 08:15:32;;;;;;;13.93;9.50;;;8.40;99.90;;;;;;4963687;28;20451;-75
2023/12/18 08:18:00;;;;;;;13.80;10.10;;;8.40;99.90;;;;;;4951258;28;20442;-74
2023/12/18 08:20:31;;;;;;;16.50;9.57;;;8.40;99.90;;;;;;4969900;28;21251;-75
2023/12/18 08:22:57;;;;;;;16.37;11.80;;;8.40;99.90;;;;;;4956078;28;20441;-74
2023/12/18 08:25:29;;;;;;;15.67;10.00;;;8.40;99.90;;;;;;4946248;28;20463;-75
2023/12/18 08:28:00;;;;;;;13.33;10.83;;;8.40;99.90;;;;;;4949878;28;21001;-74
2023/12/18 08:30:27;;;;;;;17.57;10.27;;;8.40;99.90;;;;;;4948339;28;20473;-74
2023/12/18 08:32:54;;;;;;;13.50;10.63;;;8.40;99.90;;;;;;4959182;28;20448;-75
2023/12/18 08:35:20;;;;;;;13.50;11.00;;;8.40;99.90;;;;;;4936839;28;20438;-73
2023/12/18 08:37:46;;;;;;;17.03;10.97;;;8.40;99.90;;;;;;4960927;28;20444;-73
2023/12/18 08:40:16;;;;;;;15.93;11.97;;;8.40;99.90;;;;;;4937293;28;20469;-72
2023/12/18 08:42:42;;;;;;;15.60;10.80;;;8.40;99.90;;;;;;4974327;28;20471;-72
2023/12/18 08:45:11;;;;;;;15.93;10.70;;;8.40;99.90;;;;;;4951884;28;20474;-72
2023/12/18 08:47:45;;;;;;;13.70;11.10;;;8.40;99.90;;;;;;4964025;28;20442;-72
2023/12/18 08:50:19;;;;;;;15.57;11.07;;;8.40;99.90;;;;;;4970476;28;20540;-71
2023/12/18 08:52:53;;;;;;;14.30;11.87;;;8.40;99.90;;;;;;4995860;28;20427;-72
2023/12/18 08:55:19;;;;;;;13.17;11.00;;;8.40;99.90;;;;;;4940550;28;20443;-72
2023/12/18 08:57:48;;;;;;;18.17;11.27;;;8.40;99.90;;;;;;4957233;28;20438;-72
2023/12/18 09:00:14;;;;;;;17.40;11.97;;;8.40;99.90;;;;;;4945443;28;20501;-72
2023/12/18 09:02:44;;;;;;;15.47;11.17;;;8.40;99.90;;;;;;4953032;28;20547;-72
2023/12/18 09:05:15;;;;;;;15.93;12.47;;;8.40;99.90;;;;;;4986131;28;20437;-72
2023/12/18 09:07:44;;;;;;;16.37;13.30;;;8.40;99.90;;;;;;4963901;28;20443;-71
2023/12/18 09:10:11;;;;;;;15.60;12.20;;;8.40;99.90;;;;;;4934371;28;20449;-71
2023/12/18 09:12:45;;;;;;;15.60;11.27;;;8.40;99.90;;;;;;4960490;28;21050;-72
2023/12/18 09:15:11;;;;;;;17.20;11.83;;;8.40;99.90;;;;;;4985358;28;20441;-72
2023/12/18 09:17:38;;;;;;;16.67;11.63;;;8.40;99.90;;;;;;4975017;28;21138;-72
2023/12/18 09:20:07;;;;;;;19.47;11.03;;;8.40;99.90;;;;;;4973811;28;21129;-72
2023/12/18 09:22:33;;;;;;;14.33;11.80;;;8.40;99.90;;;;;;4980424;28;21033;-72
2023/12/18 09:25:03;;;;;;;16.33;10.53;;;8.40;99.90;;;;;;4983251;28;20449;-72
2023/12/18 09:27:29;;;;;;;16.10;10.47;;;8.40;99.90;;;;;;5000995;28;20425;-72
2023/12/18 09:29:55;;;;;;;13.50;10.97;;;8.40;99.90;;;;;;4951289;28;20539;-72
2023/12/18 09:32:21;;;;;;;17.30;11.47;;;8.40;99.90;;;;;;4943038;23;20500;-37
2023/12/18 09:34:48;;;;;;;16.53;10.80;;;8.40;99.90;;;;;;4941607;28;21013;-37
2023/12/18 09:37:14;;;;;;;15.00;10.97;;;8.40;99.90;;;;;;4930371;29;20838;-35
2023/12/18 09:39:43;;;;;;;16.93;10.33;;;8.40;99.90;;;;;;4933685;28;20894;-35
2023/12/18 09:42:11;;;;;;;13.63;9.50;;;8.40;99.90;;;;;;4926556;29;20454;-34
2023/12/18 09:44:46;;;;;;;13.67;10.07;;;8.40;99.90;;;;;;4928542;29;20515;-33
2023/12/18 09:47:15;;;;;;;16.20;9.90;;;8.40;99.90;;;;;;4930931;29;20446;-37
2023/12/18 09:49:44;;;;;;;13.67;10.53;;;8.40;99.90;;;;;;4929967;29;20448;-36
2023/12/18 09:52:11;;;;;;;13.63;10.50;;;8.40;99.90;;;;;;4936352;28;20459;-35
2023/12/18 09:54:43;;;;;;;12.37;9.50;;;8.40;99.90;;;;;;4914228;29;20491;-37
2023/12/18 09:57:12;;;;;;;13.10;10.30;;;8.40;99.90;;;;;;4938647;28;20444;-37
2023/12/18 09:59:39;;;;;;;15.10;10.40;;;8.40;99.90;;;;;;4928711;29;20551;-33
2023/12/18 10:02:12;;;;;;;13.47;10.00;;;8.40;99.90;;;;;;4914176;29;20797;-38
2023/12/18 10:04:42;;;;;;;15.03;9.77;;;8.40;99.90;;;;;;4938900;29;20878;-35
2023/12/18 10:07:08;;;;;;;15.50;9.97;;;8.40;99.90;;;;;;4936575;28;20443;-36
2023/12/18 10:09:35;;;;;;;13.80;10.00;;;8.40;99.90;;;;;;4941385;28;20934;-32
2023/12/18 10:12:06;;;;;;;14.30;10.57;;;8.40;99.90;;;;;;4942429;29;20463;-35
2023/12/18 10:14:34;;;;;;;13.67;9.70;;;8.40;99.90;;;;;;4938265;29;20442;-35
2023/12/18 10:17:00;;;;;;;14.37;10.70;;;8.40;99.90;;;;;;4940026;28;20451;-36
2023/12/18 10:19:29;;;;;;;14.60;10.23;;;8.40;99.90;;;;;;4936959;28;20470;-36
2023/12/18 10:21:55;;;;;;;13.37;10.40;;;8.40;99.90;;;;;;4922211;29;20990;-33
2023/12/18 10:24:25;;;;;;;14.17;9.93;;;8.40;99.90;;;;;;4935270;28;20776;-37
2023/12/18 10:26:57;;;;;;;13.83;10.60;;;8.40;99.90;;;;;;4924849;29;20985;-38
2023/12/18 10:29:23;;;;;;;13.50;10.83;;;8.40;99.90;;;;;;4928763;29;20435;-38
2023/12/18 10:31:49;;;;;;;14.70;10.50;;;8.40;99.90;;;;;;4925126;29;20812;-36
2023/12/18 10:34:17;;;;;;;14.07;9.67;;;8.40;99.90;;;;;;4921353;29;20868;-33
2023/12/18 10:36:45;;;;;;;11.37;9.03;;;8.40;99.90;;;;;;4934516;28;21047;-34
2023/12/18 10:39:15;;;;;;;14.57;9.93;;;8.40;99.90;;;;;;4932508;29;20471;-35
2023/12/18 10:41:49;;;;;;;15.30;10.60;;;8.40;99.90;;;;;;4926848;29;20435;-36
2023/12/18 10:44:16;;;;;;;12.90;8.70;;;8.40;99.90;;;;;;4935494;28;20439;-36
2023/12/18 10:46:44;;;;;;;14.50;10.73;;;8.40;99.90;;;;;;4936297;28;20487;-33
2023/12/18 10:49:15;;;;;;;14.50;10.37;;;8.40;99.90;;;;;;4930896;28;20542;-36
2023/12/18 10:51:45;;;;;;;16.03;10.63;;;8.40;99.90;;;;;;4938884;29;20443;-37
2023/12/18 10:54:12;;;;;;;14.10;10.50;;;8.40;99.90;;;;;;4940445;29;21232;-32
2023/12/18 10:56:43;;;;;;;14.50;9.80;;;8.40;99.90;;;;;;4932549;28;20487;-37
2023/12/18 10:59:13;;;;;;;13.17;9.90;;;8.40;99.90;;;;;;4926162;29;20479;-36
2023/12/18 11:01:39;;;;;;;15.37;10.00;;;8.40;99.90;;;;;;4927593;29;20510;-36
2023/12/18 11:04:12;;;;;;;14.67;9.60;;;8.40;99.90;;;;;;4931667;29;21333;-34
2023/12/18 11:06:40;;;;;;;16.07;10.07;;;8.40;99.90;;;;;;4928505;28;20467;-36
2023/12/18 11:09:08;;;;;;;16.63;9.90;;;8.40;99.90;;;;;;4928117;28;21266;-34
2023/12/18 11:11:36;;;;;;;10.60;8.70;;;8.40;99.90;;;;;;4930752;29;20436;-30
2023/12/18 11:18:02;;;;;;;12.60;9.10;;;8.40;99.90;;;;;;4926199;29;20428;-34
2023/12/18 11:20:35;;;;;;;9.70;7.93;;;8.40;99.90;;;;;;4928213;29;20459;-35
2023/12/18 11:23:05;;;;;;;11.43;8.87;;;8.40;99.90;;;;;;4935603;28;21493;-36
2023/12/18 11:25:49;;;;;;;10.97;8.23;;;8.40;99.90;;;;;;4936955;28;20451;-37
2023/12/18 11:28:24;;;;;;;12.83;8.60;;;8.40;99.90;;;;;;4939179;28;20424;-35
2023/12/18 11:30:59;;;;;;;10.60;8.60;;;8.40;99.90;;;;;;4928491;29;20424;-33
2023/12/18 11:33:25;;;;;;;11.03;8.80;;;8.40;99.90;;;;;;4931989;28;20467;-34
2023/12/18 11:35:54;;;;;;;9.73;7.90;;;8.40;99.90;;;;;;4932540;28;20518;-34
2023/12/18 11:38:24;;;;;;;12.00;7.60;;;8.40;99.90;;;;;;4931164;28;20462;-33
2023/12/18 11:41:01;;;;;;;9.10;7.40;;;8.40;99.90;;;;;;4931799;29;21033;-37
2023/12/18 11:43:35;;;;;;;10.80;7.30;;;8.40;99.90;;;;;;4928616;29;21228;-33
2023/12/18 11:46:18;;;;;;;8.27;7.23;;;8.40;99.90;;;;;;4936960;28;20494;-35
2023/12/18 11:48:45;;;;;;;10.30;7.90;;;8.40;99.90;;;;;;4927976;28;20614;-36
2023/12/18 11:51:17;;;;;;;9.00;7.20;;;8.40;99.90;;;;;;4933801;28;20436;-36
2023/12/18 11:54:00;;;;;;;10.60;8.10;;;8.40;99.90;;;;;;4940470;29;20633;-35
2023/12/18 11:56:40;;;;;;;9.50;7.73;;;8.50;99.90;;;;;;4940046;29;20445;-35
2023/12/18 11:59:09;;;;;;;10.90;6.57;;;8.50;99.90;;;;;;4923681;29;20454;-35
2023/12/18 12:01:38;;;;;;;8.17;6.80;;;8.50;99.90;;;;;;4938556;29;20471;-37
2023/12/18 12:04:05;;;;;;;11.93;7.70;;;8.50;99.90;;;;;;4941487;28;20466;-38
2023/12/18 12:06:34;;;;;;;11.23;7.53;;;8.50;99.90;;;;;;4940921;28;20471;-36
2023/12/18 12:09:00;;;;;;;8.63;6.33;;;8.50;99.90;;;;;;4928782;29;20458;-39
2023/12/18 12:11:28;;;;;;;11.30;7.30;;;8.50;99.90;;;;;;4956777;28;20478;-37
2023/12/18 12:13:57;;;;;;;9.00;7.23;;;8.50;99.90;;;;;;4941431;28;20420;-34
2023/12/18 12:16:23;;;;;;;10.00;6.70;;;8.50;99.90;;;;;;4921986;29;20455;-36
2023/12/18 12:18:51;;;;;;;10.50;6.60;;;8.40;99.90;;;;;;4923859;29;20452;-39
2023/12/18 12:21:17;;;;;;;10.20;7.17;;;8.40;99.90;;;;;;4918906;29;20474;-30
2023/12/18 12:23:48;;;;;;;10.10;6.10;;;8.40;99.90;;;;;;4898184;29;20542;-38
2023/12/18 12:26:23;;;;;;;7.73;6.30;;;8.40;99.90;;;;;;4940221;28;20556;-33
2023/12/18 12:28:49;;;;;;;8.37;5.93;;;8.40;99.90;;;;;;4952287;28;20415;-38
2023/12/18 12:31:18;;;;;;;7.47;6.30;;;8.50;99.90;;;;;;4920276;29;20413;-38
2023/12/18 12:33:49;;;;;;;12.77;7.80;;;8.50;99.90;;;;;;4919063;29;20460;-38
2023/12/18 12:37:23;;;;;;;10.23;6.87;;;8.50;99.90;;;;;;4919956;29;20468;-37
2023/12/18 12:40:14;;;;;;;9.80;7.43;;;8.50;99.90;;;;;;4872400;29;20488;-33
2023/12/18 12:42:42;;;;;;;12.47;7.50;;;8.40;99.90;;;;;;4920155;29;20422;-38
2023/12/18 12:45:15;;;;;;;9.47;6.13;;;8.50;99.90;;;;;;4919918;29;20507;-33
2023/12/18 12:47:41;;;;;;;8.77;6.33;;;8.50;99.90;;;;;;4921800;29;21433;-31
2023/12/18 12:50:08;;;;;;;11.03;7.13;;;8.50;99.90;;;;;;4920168;29;20460;-35
2023/12/18 12:52:38;;;;;;;8.90;6.70;;;8.50;99.90;;;;;;4918806;29;20428;-32
2023/12/18 12:55:11;;;;;;;10.67;6.60;;;8.50;99.90;;;;;;4931785;28;20439;-33
2023/12/18 12:57:40;;;;;;;8.50;7.20;;;8.50;99.90;;;;;;4944223;28;20427;-40
2023/12/18 13:00:08;;;;;;;9.43;7.63;;;8.50;99.90;;;;;;4941585;28;20467;-34
2023/12/18 13:02:35;;;;;;;9.13;7.80;;;8.50;99.90;;;;;;4937585;29;20435;-38
2023/12/18 13:05:04;;;;;;;10.07;7.97;;;8.50;99.90;;;;;;4919424;29;20998;-36
2023/12/18 13:07:33;;;;;;;9.10;7.23;;;8.50;99.90;;;;;;4919684;29;20858;-35